Time;durP1;ratioP1;P1;durP2;ratioP2;P2;SDS_P1;SDS_P2;PMS_P1;PMS_P2;Temp;Humidity;BMP_temperature;BMP_pressure;BME280_temperature;BME280_humidity;BME280_pressure;Samples;Min_cycle;Max_cycle;Signal;HPM_P1;HPM_P2
2022/11/12 00:01:28;;;;;;;18.67;14.30;;;;;;;9.70;89.99;101915.92;3351790;82;21047;-77
2022/11/12 00:06:40;;;;;;;19.00;15.00;;;;;;;9.70;90.05;101910.73;3311919;84;21014;-77
2022/11/12 00:11:49;;;;;;;20.65;15.63;;;;;;;9.67;90.01;101914.49;3331379;83;21018;-77
2022/11/12 00:16:59;;;;;;;27.95;17.67;;;;;;;9.68;90.09;101918.88;3368660;83;21572;-77
2022/11/12 00:22:08;;;;;;;23.65;14.93;;;;;;;9.69;90.07;101919.33;3329868;83;20988;-77
2022/11/12 00:27:18;;;;;;;21.30;16.82;;;;;;;9.68;90.05;101924.06;3278176;84;21026;-77
2022/11/12 00:32:28;;;;;;;23.35;17.73;;;;;;;9.68;90.08;101923.65;3341012;84;21046;-77
2022/11/12 00:37:38;;;;;;;23.00;16.77;;;;;;;9.68;90.06;101924.06;3369242;83;20998;-77
2022/11/12 00:42:47;;;;;;;24.27;16.73;;;;;;;9.69;90.13;101934.91;3327090;83;21055;-77
2022/11/12 00:47:56;;;;;;;20.40;15.78;;;;;;;9.69;90.11;101932.31;3327945;83;20967;-78
2022/11/12 00:53:06;;;;;;;23.45;15.50;;;;;;;9.71;90.15;101930.66;3325538;83;21659;-77
2022/11/12 00:58:18;;;;;;;22.93;16.02;;;;;;;9.68;89.98;101925.37;3342674;84;21205;-77
2022/11/12 01:03:31;;;;;;;25.92;16.82;;;;;;;9.69;90.10;101916.34;3325241;83;21022;-77
2022/11/12 01:08:41;;;;;;;22.22;16.48;;;;;;;9.69;90.12;101921.92;3333481;83;20987;-77
2022/11/12 01:13:58;;;;;;;26.17;17.07;;;;;;;9.70;90.10;101917.22;3350280;83;21011;-77
2022/11/12 01:19:11;;;;;;;20.27;15.75;;;;;;;9.69;89.93;101915.05;3389730;81;21034;-77
2022/11/12 01:24:21;;;;;;;20.02;15.05;;;;;;;9.68;89.98;101919.75;3262982;84;21012;-77
2022/11/12 01:29:30;;;;;;;23.25;15.28;;;;;;;9.68;90.26;101917.58;3338957;83;21034;-77
2022/11/12 01:34:42;;;;;;;18.77;14.53;;;;;;;9.68;90.00;101911.08;3329409;84;20966;-77
2022/11/12 01:39:51;;;;;;;15.50;13.70;;;;;;;9.67;90.04;101918.39;3282695;84;21010;-77
2022/11/12 01:45:01;;;;;;;21.10;14.50;;;;;;;9.65;89.95;101912.25;3373720;82;20920;-77
2022/11/12 01:50:31;;;;;;;17.82;13.95;;;;;;;9.64;90.05;101921.77;3381730;82;20959;-77
2022/11/12 01:55:40;;;;;;;17.02;13.88;;;;;;;9.65;90.17;101926.53;3385207;82;21031;-77
2022/11/12 02:00:51;;;;;;;16.30;12.75;;;;;;;9.63;90.14;101923.00;3367953;82;21018;-77
2022/11/12 02:06:06;;;;;;;16.80;13.72;;;;;;;9.63;90.26;101918.67;3362825;83;21477;-77
2022/11/12 02:11:19;;;;;;;15.85;12.88;;;;;;;9.63;90.15;101929.48;3347819;83;21036;-77
2022/11/12 02:16:37;;;;;;;19.50;13.30;;;;;;;9.62;90.29;101923.41;3367790;82;20939;-77
2022/11/12 02:21:47;;;;;;;14.38;12.10;;;;;;;9.62;90.26;101922.12;3411901;82;20978;-77
2022/11/12 02:26:58;;;;;;;18.75;15.40;;;;;;;9.62;90.36;101927.70;3447919;81;21503;-77
2022/11/12 02:32:07;;;;;;;25.05;15.60;;;;;;;9.61;90.37;101924.65;3393396;82;20987;-77
2022/11/12 02:37:19;;;;;;;21.75;15.48;;;;;;;9.63;90.38;101921.70;3460823;81;21083;-77
2022/11/12 02:42:28;;;;;;;18.92;13.68;;;;;;;9.63;90.30;101928.19;3475385;80;20935;-77
2022/11/12 02:47:38;;;;;;;19.50;14.78;;;;;;;9.64;90.26;101932.54;3462246;81;21019;-77
2022/11/12 02:52:49;;;;;;;17.32;13.38;;;;;;;9.63;90.21;101926.89;3423233;81;21061;-77
2022/11/12 02:57:59;;;;;;;14.70;12.55;;;;;;;9.66;90.29;101932.22;3420168;81;21018;-77
2022/11/12 03:03:11;;;;;;;18.92;13.98;;;;;;;9.65;90.21;101929.13;3413460;81;20900;-77
2022/11/12 03:08:23;;;;;;;17.10;13.05;;;;;;;9.65;90.32;101938.22;3402489;82;21022;-77
2022/11/12 03:13:32;;;;;;;17.57;12.90;;;;;;;9.66;90.26;101943.48;3452846;80;20994;-77
2022/11/12 03:18:42;;;;;;;19.90;13.08;;;;;;;9.67;90.33;101950.84;3476311;82;21512;-77
2022/11/12 03:23:56;;;;;;;18.07;12.60;;;;;;;9.66;90.30;101943.91;3436429;80;20999;-77
2022/11/12 03:29:05;;;;;;;20.82;13.98;;;;;;;9.66;90.32;101943.91;3463862;81;21074;-77
2022/11/12 03:34:14;;;;;;;20.52;13.78;;;;;;;9.62;90.36;101944.58;3442445;81;20955;-77
2022/11/12 03:39:24;;;;;;;20.25;12.98;;;;;;;9.64;90.28;101949.42;3419360;80;20982;-76
2022/11/12 03:44:33;;;;;;;18.62;12.07;;;;;;;9.64;90.34;101950.72;3450016;80;20924;-77
2022/11/12 03:49:43;;;;;;;15.90;12.85;;;;;;;9.63;90.32;101946.37;3416315;82;21010;-77
2022/11/12 03:54:54;;;;;;;13.68;11.03;;;;;;;9.64;90.28;101953.31;3428357;81;20952;-77
2022/11/12 04:00:06;;;;;;;16.23;11.50;;;;;;;9.63;90.33;101952.86;3444140;81;20983;-77
2022/11/12 04:10:45;;;;;;;15.58;12.33;;;;;;;9.62;90.48;101949.38;3431083;80;21013;-77
2022/11/12 04:21:50;;;;;;;13.65;11.55;;;;;;;9.59;90.32;101944.05;3461118;81;20916;-77
2022/11/12 04:27:00;;;;;;;16.32;12.95;;;;;;;9.60;90.42;101946.23;3426507;81;21261;-77
2022/11/12 04:32:10;;;;;;;17.15;11.85;;;;;;;9.59;90.30;101941.88;3443622;81;21010;-77
2022/11/12 04:37:23;;;;;;;13.95;11.15;;;;;;;9.57;90.34;101939.61;3395409;83;21150;-77
2022/11/12 04:48:08;;;;;;;14.98;12.10;;;;;;;9.56;90.29;101936.13;3321808;84;21017;-77
2022/11/12 04:53:14;;;;;;;15.18;10.28;;;;;;;9.54;90.29;101937.36;3363097;82;21054;-77
2022/11/12 04:58:24;;;;;;;14.50;11.35;;;;;;;9.53;90.39;101930.42;3348810;83;20991;-77
2022/11/12 05:03:34;;;;;;;16.00;11.60;;;;;;;9.52;90.30;101933.83;3372065;82;21018;-77
2022/11/12 05:08:45;;;;;;;16.00;11.53;;;;;;;9.52;90.15;101933.83;3378986;83;20974;-77
2022/11/12 05:13:55;;;;;;;12.80;10.45;;;;;;;9.51;90.08;101930.77;3371722;82;20938;-77
2022/11/12 05:19:05;;;;;;;14.15;11.33;;;;;;;9.51;90.06;101932.07;3326427;83;21006;-77
2022/11/12 05:24:14;;;;;;;13.48;10.90;;;;;;;9.51;90.08;101930.77;3356512;83;21030;-77
2022/11/12 05:29:24;;;;;;;16.75;13.03;;;;;;;9.51;90.04;101933.76;3376030;83;21054;-77
2022/11/12 05:34:33;;;;;;;15.10;10.60;;;;;;;9.51;89.91;101930.77;3360263;82;21571;-77
2022/11/12 05:39:48;;;;;;;11.80;9.60;;;;;;;9.51;89.91;101926.88;3332261;84;21000;-77
2022/11/12 05:44:58;;;;;;;12.47;9.88;;;;;;;9.51;89.88;101933.76;3365518;83;20971;-77
2022/11/12 05:50:08;;;;;;;14.28;11.40;;;;;;;9.49;89.87;101936.28;3348243;84;20994;-77
2022/11/12 05:55:20;;;;;;;14.73;12.25;;;;;;;9.48;89.58;101942.32;3358938;83;20955;-77
2022/11/12 06:00:37;;;;;;;17.85;14.60;;;;;;;9.46;89.17;101950.47;3387028;82;20979;-77
2022/11/12 06:05:42;;;;;;;16.15;13.35;;;;;;;9.45;88.77;101967.27;3373606;82;21042;-76
2022/11/12 06:10:53;;;;;;;19.80;13.38;;;;;;;9.41;88.43;101964.05;3393360;82;20959;-77
2022/11/12 06:16:03;;;;;;;18.92;12.98;;;;;;;9.36;88.30;101972.96;3305912;84;21074;-77
2022/11/12 06:21:26;;;;;;;21.75;14.50;;;;;;;9.33;88.11;101967.63;3343182;83;20987;-77
2022/11/12 06:26:41;;;;;;;21.48;15.75;;;;;;;9.31;88.16;101970.16;3345525;84;21450;-77
2022/11/12 06:31:51;;;;;;;23.57;15.45;;;;;;;9.30;88.15;101972.30;3359277;83;20963;-77
2022/11/12 06:37:01;;;;;;;20.57;16.20;;;;;;;9.28;87.85;101974.33;3312176;84;21613;-77
2022/11/12 06:42:10;;;;;;;21.50;14.90;;;;;;;9.26;87.55;101986.36;3333951;83;21007;-77
2022/11/12 06:47:20;;;;;;;23.25;16.07;;;;;;;9.19;87.47;101980.44;3324854;84;21070;-77
2022/11/12 06:52:29;;;;;;;24.32;15.32;;;;;;;9.19;87.53;101985.20;3393008;83;21137;-77
2022/11/12 06:57:39;;;;;;;22.52;15.70;;;;;;;9.16;87.33;101978.61;3279659;83;21003;-77
2022/11/12 07:03:02;;;;;;;;;;;;;;;;;;;;;
2022/11/12 07:08:05;;;;;;;19.92;14.93;;;;;;;9.15;86.83;101989.37;3412525;82;21257;-76
2022/11/12 07:13:15;;;;;;;19.52;16.17;;;;;;;9.10;86.69;102001.29;3367182;83;20991;-77
2022/11/12 07:18:31;;;;;;;20.27;17.45;;;;;;;9.06;86.38;102014.93;3382114;83;21018;-77
2022/11/12 07:23:45;;;;;;;21.27;17.12;;;;;;;9.01;86.43;102021.62;3397574;83;21019;-77
2022/11/12 07:28:55;;;;;;;23.85;18.07;;;;;;;8.95;86.44;102013.58;3418728;81;21168;-77
2022/11/12 07:34:05;;;;;;;21.07;17.12;;;;;;;8.92;86.24;102026.41;3396594;81;21017;-77
2022/11/12 07:39:14;;;;;;;21.62;18.00;;;;;;;8.88;86.10;102025.80;3391297;81;21018;-77
2022/11/12 07:44:24;;;;;;;19.17;17.10;;;;;;;8.87;86.13;102025.30;3479191;81;21019;-77
2022/11/12 07:49:40;;;;;;;23.60;19.65;;;;;;;8.78;85.84;102030.58;3398298;81;21591;-77
2022/11/12 07:54:50;;;;;;;20.70;18.55;;;;;;;8.70;85.74;102032.34;3458238;80;21002;-77
2022/11/12 07:59:59;;;;;;;19.75;16.25;;;;;;;8.68;86.15;102032.68;3436072;81;20931;-77
2022/11/12 08:05:21;;;;;;;24.37;19.02;;;;;;;8.73;85.93;102035.08;3410008;81;21042;-77
2022/11/12 08:10:31;;;;;;;26.33;20.02;;;;;;;8.69;85.94;102043.13;3481155;80;21790;-77
2022/11/12 08:15:53;;;;;;;30.70;22.93;;;;;;;8.70;86.12;102036.23;3442641;80;20913;-77
2022/11/12 08:21:10;;;;;;;28.90;22.77;;;;;;;8.67;85.80;102033.48;3466949;80;20963;-77
2022/11/12 08:26:29;;;;;;;34.07;23.80;;;;;;;8.71;85.95;102031.12;3414146;80;21505;-78
2022/11/12 08:31:45;;;;;;;29.30;21.77;;;;;;;8.73;86.09;102025.59;3444270;81;21224;-77
2022/11/12 08:37:04;;;;;;;29.32;22.77;;;;;;;8.75;85.91;102023.95;3451866;81;21570;-77
2022/11/12 08:42:10;;;;;;;29.85;22.20;;;;;;;8.80;86.11;102040.11;3452417;80;20997;-77
2022/11/12 08:47:22;;;;;;;29.72;22.70;;;;;;;8.85;86.17;102033.43;3418140;80;21026;-77
2022/11/12 08:57:54;;;;;;;31.68;23.98;;;;;;;8.86;85.88;102035.22;3324829;84;20952;-77
2022/11/12 09:03:09;;;;;;;28.87;23.20;;;;;;;8.86;86.27;102032.20;3296760;84;20990;-77
2022/11/12 09:08:27;;;;;;;28.55;23.70;;;;;;;8.87;86.18;102048.65;3302723;85;21693;-77
2022/11/12 09:13:41;;;;;;;34.38;24.60;;;;;;;8.90;86.37;102059.17;3308522;84;21058;-76
2022/11/12 09:19:07;;;;;;;29.85;22.77;;;;;;;8.95;86.39;102055.96;3333171;84;21713;-77
2022/11/12 09:24:23;;;;;;;31.90;25.05;;;;;;;8.94;86.08;102063.67;3204739;87;20962;-77
2022/11/12 09:29:47;;;;;;;;;;;;;;;;;;;;;
2022/11/12 09:34:51;;;;;;;32.83;25.15;;;;;;;8.99;86.12;102056.11;3325787;83;21117;-77
2022/11/12 09:40:00;;;;;;;34.55;23.98;;;;;;;8.99;85.83;102069.95;3338486;83;21564;-77
2022/11/12 09:45:28;;;;;;;33.78;23.20;;;;;;;8.98;85.95;102061.72;3368330;83;21022;-77
2022/11/12 09:50:48;;;;;;;33.18;22.27;;;;;;;9.02;85.84;102064.91;3214696;87;21750;-77
2022/11/12 09:56:00;;;;;;;27.90;22.50;;;;;;;9.04;85.82;102067.58;3155583;88;21589;-77
2022/11/12 10:01:25;;;;;;;34.60;25.55;;;;;;;9.04;85.81;102063.27;3116832;89;21042;-77
2022/11/12 10:06:46;;;;;;;32.88;24.80;;;;;;;9.05;85.97;102063.77;3099410;90;21051;-77
2022/11/12 10:12:34;;;;;;;30.75;24.57;;;;;;;9.06;85.70;102069.41;3060718;91;21110;-77
2022/11/12 10:18:06;;;;;;;35.55;26.52;;;;;;;9.10;85.91;102073.03;3046178;91;21053;-77
2022/11/12 10:23:39;;;;;;;35.68;26.87;;;;;;;9.10;85.92;102076.53;3030126;91;21745;-77
2022/11/12 10:29:23;;;;;;;39.45;28.07;;;;;;;9.13;86.07;102068.86;3076750;90;21082;-78
2022/11/12 10:34:34;;;;;;;39.08;27.67;;;;;;;9.13;85.68;102074.05;3077086;91;21237;-77
2022/11/12 10:39:59;;;;;;;32.93;25.88;;;;;;;9.14;85.88;102077.56;3053441;91;21671;-77
2022/11/12 10:45:24;;;;;;;37.20;27.77;;;;;;;9.13;85.76;102081.84;3255865;84;20946;-77
2022/11/12 10:50:54;;;;;;;36.98;28.67;;;;;;;9.14;85.74;102077.14;3424402;82;21057;-77
2022/11/12 10:56:04;;;;;;;37.25;29.15;;;;;;;9.14;85.92;102083.63;3388654;83;21634;-76
2022/11/12 11:01:19;;;;;;;41.00;30.07;;;;;;;9.13;85.63;102075.35;3369132;81;21470;-77
2022/11/12 11:06:41;;;;;;;34.38;25.23;;;;;;;9.12;85.58;102078.78;3431674;81;21586;-77
2022/11/12 11:11:57;;;;;;;35.17;25.77;;;;;;;9.14;85.43;102078.86;3450973;81;21100;-77
2022/11/12 11:17:27;;;;;;;36.45;27.82;;;;;;;9.11;85.44;102083.48;3434379;80;20993;-77
2022/11/12 11:23:02;;;;;;;35.08;27.13;;;;;;;9.10;85.59;102081.73;3465628;80;21061;-77
2022/11/12 11:29:02;;;;;;;35.23;27.27;;;;;;;9.11;85.72;102080.01;3329898;84;21047;-77
2022/11/12 11:34:31;;;;;;;35.88;27.00;;;;;;;9.09;85.66;102079.94;3177170;87;21007;-77
2022/11/12 11:40:01;;;;;;;37.45;28.47;;;;;;;9.12;85.78;102074.89;3180889;87;21039;-77
2022/11/12 11:45:25;;;;;;;40.35;28.77;;;;;;;9.14;85.83;102073.25;3131229;89;21231;-77
2022/11/12 11:50:50;;;;;;;36.63;28.87;;;;;;;9.15;85.48;102085.38;3149322;88;22362;-77
2022/11/12 11:56:05;;;;;;;29.42;24.82;;;;;;;9.15;85.61;102090.58;3155917;89;21089;-77
2022/11/12 12:01:25;;;;;;;30.70;24.30;;;;;;;9.14;85.43;102091.41;3147255;86;21574;-77
2022/11/12 12:06:42;;;;;;;30.52;24.75;;;;;;;9.13;85.23;102097.41;3225140;83;21034;-77
2022/11/12 12:12:35;;;;;;;34.80;26.40;;;;;;;9.09;85.33;102094.20;3415258;82;21043;-77
2022/11/12 12:18:02;;;;;;;42.62;35.43;;;;;;;9.07;85.25;102081.58;3388695;82;20968;-77
2022/11/12 12:23:38;;;;;;;30.40;23.80;;;;;;;9.06;85.36;102074.59;3423851;82;20975;-77
2022/11/12 12:29:08;;;;;;;32.70;26.27;;;;;;;9.06;85.16;102070.70;3394721;82;21396;-77
2022/11/12 12:34:32;;;;;;;33.28;26.27;;;;;;;9.04;85.38;102071.05;3389766;82;20944;-77
2022/11/12 12:39:47;;;;;;;28.92;24.12;;;;;;;9.06;85.41;102065.94;3456057;81;21482;-76
2022/11/12 12:45:11;;;;;;;27.95;23.25;;;;;;;9.04;85.22;102080.13;3454996;80;20990;-77
2022/11/12 12:50:25;;;;;;;31.37;24.30;;;;;;;9.03;85.06;102082.27;3252361;85;20974;-77
2022/11/12 12:55:42;;;;;;;27.02;22.37;;;;;;;9.01;85.18;102087.77;3226581;86;21508;-76
2022/11/12 13:00:58;;;;;;;31.10;23.85;;;;;;;9.03;85.10;102082.66;3255510;86;20984;-77
2022/11/12 13:06:26;;;;;;;26.33;21.57;;;;;;;9.00;85.14;102071.75;3222837;86;21078;-77
2022/11/12 13:17:35;;;;;;;29.70;21.70;;;;;;;8.99;85.12;102080.75;3237002;86;21135;-77
2022/11/12 13:22:50;;;;;;;29.07;23.73;;;;;;;8.97;85.10;102082.85;3256973;86;21054;-77
2022/11/12 13:28:05;;;;;;;28.92;22.02;;;;;;;8.97;85.14;102087.16;3393648;81;20990;-77
2022/11/12 13:33:28;;;;;;;24.57;21.73;;;;;;;8.98;85.10;102086.36;3421772;82;20974;-77
2022/11/12 13:38:38;;;;;;;25.50;20.10;;;;;;;9.01;85.16;102092.95;3470592;80;21101;-76
2022/11/12 13:43:48;;;;;;;27.40;21.15;;;;;;;8.99;84.92;102088.11;3424833;81;20956;-76
2022/11/12 13:49:16;;;;;;;23.87;17.87;;;;;;;8.99;85.23;102093.30;3452592;81;20951;-77
2022/11/12 13:54:36;;;;;;;23.90;18.35;;;;;;;9.01;85.18;102091.66;3446409;81;21051;-77
2022/11/12 13:59:46;;;;;;;26.68;20.90;;;;;;;9.01;85.28;102094.26;3477496;81;21101;-77
2022/11/12 14:05:15;;;;;;;24.77;18.02;;;;;;;9.01;85.15;102090.36;3436547;81;20958;-77
2022/11/12 14:11:09;;;;;;;24.10;18.98;;;;;;;8.98;84.92;102088.95;3438003;81;20998;-77
2022/11/12 14:17:15;;;;;;;;;;;;;;;;;;;;;
2022/11/12 14:22:32;;;;;;;27.55;19.60;;;;;;;8.99;85.29;102087.23;3440407;80;21025;-77
2022/11/12 14:27:35;;;;;;;22.25;16.70;;;;;;;8.98;85.38;102086.36;3465930;81;22077;-77
2022/11/12 14:33:02;;;;;;;23.50;18.40;;;;;;;8.98;85.36;102090.25;3425965;81;21672;-77
2022/11/12 14:38:32;;;;;;;21.20;17.90;;;;;;;8.99;85.53;102091.13;3442942;81;20969;-77
2022/11/12 14:43:50;;;;;;;24.45;17.00;;;;;;;8.97;85.49;102083.27;3448363;80;21059;-77
2022/11/12 14:49:26;;;;;;;26.23;18.40;;;;;;;8.96;85.39;102095.78;3457885;81;21054;-77
2022/11/12 14:54:53;;;;;;;17.70;14.75;;;;;;;8.94;85.27;102084.42;3465279;82;22512;-77
2022/11/12 15:00:36;;;;;;;24.12;17.95;;;;;;;8.93;85.54;102085.26;3468210;81;20999;-77
2022/11/12 15:05:59;;;;;;;19.52;16.20;;;;;;;8.91;85.65;102088.20;3469776;81;21222;-76
2022/11/12 15:11:25;;;;;;;22.42;16.77;;;;;;;8.90;85.75;102098.08;3432617;81;21554;-77
2022/11/12 15:16:35;;;;;;;20.30;15.70;;;;;;;8.88;85.84;102088.05;3448902;80;21046;-77
2022/11/12 15:21:56;;;;;;;23.27;17.82;;;;;;;8.87;85.84;102092.74;3408139;81;20950;-77
2022/11/12 15:27:36;;;;;;;18.12;14.18;;;;;;;8.87;86.04;102101.81;3445672;80;20979;-77
2022/11/12 15:33:07;;;;;;;21.35;17.67;;;;;;;8.85;85.98;102092.66;3469893;81;20987;-77
2022/11/12 15:38:37;;;;;;;;;;;;;;;;;;;;;
2022/11/12 15:43:44;;;;;;;26.20;19.30;;;;;;;8.82;86.31;102107.20;3449135;80;21686;-77
2022/11/12 15:48:58;;;;;;;21.57;17.48;;;;;;;8.81;86.45;102115.39;3461000;81;20970;-77
2022/11/12 15:54:08;;;;;;;25.97;19.67;;;;;;;8.81;86.54;102117.11;3445165;80;21365;-77
2022/11/12 15:59:18;;;;;;;21.90;18.45;;;;;;;8.81;86.53;102110.63;3452917;80;20971;-77
2022/11/12 16:04:27;;;;;;;24.07;18.92;;;;;;;8.78;86.45;102121.34;3434778;81;21438;-77
2022/11/12 16:09:43;;;;;;;28.77;22.02;;;;;;;8.78;86.56;102122.64;3426071;81;20907;-77
2022/11/12 16:14:58;;;;;;;28.98;20.97;;;;;;;8.77;86.51;102118.26;3435667;81;20991;-76
2022/11/12 16:20:27;;;;;;;26.50;20.80;;;;;;;8.78;86.78;102133.02;3437598;81;21002;-77
2022/11/12 16:25:33;;;;;;;26.07;20.45;;;;;;;8.78;86.79;102143.38;3445843;81;21199;-77
2022/11/12 16:30:45;;;;;;;30.12;22.60;;;;;;;8.80;86.93;102139.95;3447884;80;21501;-77
2022/11/12 16:36:42;;;;;;;;;;;;;;;;;;;;;
2022/11/12 16:42:03;;;;;;;30.25;22.20;;;;;;;8.80;87.06;102155.52;3475190;80;21339;-75
2022/11/12 16:47:33;;;;;;;32.28;22.67;;;;;;;8.78;87.07;102145.98;3440510;80;21670;-75
2022/11/12 16:52:59;;;;;;;33.00;25.00;;;;;;;8.76;87.08;102150.21;3328648;84;21200;-75
2022/11/12 16:58:46;;;;;;;;;;;;;;;;;;;;;
2022/11/12 17:03:59;;;;;;;29.18;23.85;;;;;;;8.77;87.29;102156.28;3258561;86;21553;-75
2022/11/12 17:09:19;;;;;;;33.05;25.50;;;;;;;8.78;87.39;102145.98;3236141;86;21033;-75
2022/11/12 17:15:10;;;;;;;;;;;;;;;;;;;;;
2022/11/12 17:20:31;;;;;;;33.75;27.27;;;;;;;8.73;87.52;102150.05;3227048;87;21188;-75
2022/11/12 17:25:53;;;;;;;37.67;27.77;;;;;;;8.74;87.60;102153.53;3222726;86;21505;-75
2022/11/12 17:36:53;;;;;;;40.45;30.97;;;;;;;8.71;87.85;102147.80;3096444;91;21119;-75
2022/11/12 17:47:47;;;;;;;;;;;;;;;;;;;;;
2022/11/12 17:53:07;;;;;;;50.80;37.60;;;;;;;8.71;88.08;102137.81;2943984;95;21120;-75
2022/11/12 17:58:26;;;;;;;44.00;35.77;;;;;;;8.70;88.04;102142.13;2899852;96;21888;-76
2022/11/12 18:03:42;;;;;;;48.10;36.35;;;;;;;8.68;88.20;102138.58;2885239;96;21121;-75
2022/11/12 18:08:58;;;;;;;53.02;40.73;;;;;;;8.69;88.48;102128.70;2921525;96;21111;-76
2022/11/12 18:14:12;;;;;;;51.80;39.55;;;;;;;8.71;88.51;102138.73;2977724;90;20957;-75
2022/11/12 18:19:22;;;;;;;54.20;39.10;;;;;;;8.71;88.56;102130.95;3108183;90;20988;-75
2022/11/12 18:24:50;;;;;;;52.83;39.20;;;;;;;8.71;88.50;102137.43;3130938;88;21081;-75
2022/11/12 18:30:01;;;;;;;58.80;42.27;;;;;;;8.72;88.70;102138.31;3168697;88;21057;-75
2022/11/12 18:35:34;;;;;;;55.92;40.78;;;;;;;8.73;88.72;102144.87;3177862;87;21041;-75
2022/11/12 18:40:59;;;;;;;63.45;44.08;;;;;;;8.71;88.71;102133.54;3198567;81;20997;-76
2022/11/12 18:46:18;;;;;;;55.20;42.08;;;;;;;8.72;88.93;102137.89;3476688;80;20987;-76
2022/11/12 18:51:38;;;;;;;48.17;38.35;;;;;;;8.74;88.94;102136.25;3486886;81;21002;-78
2022/11/12 18:57:12;;;;;;;50.80;37.63;;;;;;;8.74;89.04;102137.97;3483177;80;21564;-76
2022/11/12 19:02:54;;;;;;;53.40;39.60;;;;;;;8.73;89.10;102144.87;3270809;85;21086;-76
2022/11/12 19:08:23;;;;;;;53.02;38.53;;;;;;;8.74;89.25;102145.33;3119285;89;21136;-77
2022/11/12 19:13:27;;;;;;;52.10;39.38;;;;;;;8.73;89.29;102155.24;2959945;95;21057;-77
2022/11/12 19:18:38;;;;;;;52.40;39.18;;;;;;;8.75;89.38;102148.42;3012195;91;21044;-75
2022/11/12 19:23:52;;;;;;;52.78;37.35;;;;;;;8.74;89.44;102152.23;2997823;93;21067;-76
2022/11/12 19:29:05;;;;;;;51.60;37.98;;;;;;;8.73;89.53;102140.98;2976656;95;21519;-76
2022/11/12 19:34:24;;;;;;;55.67;41.13;;;;;;;8.73;89.71;102147.47;2953818;95;21078;-76
2022/11/12 19:39:28;;;;;;;50.33;36.70;;;;;;;8.73;89.74;102145.29;3033590;91;21057;-76
2022/11/12 19:44:42;;;;;;;56.98;42.50;;;;;;;8.73;89.85;102146.59;3153586;88;21029;-76
2022/11/12 19:49:56;;;;;;;56.10;41.53;;;;;;;8.73;89.94;102151.77;3382316;82;21524;-76
2022/11/12 19:55:07;;;;;;;52.90;39.33;;;;;;;8.73;90.00;102156.54;3392913;83;21005;-76
2022/11/12 20:00:20;;;;;;;55.35;37.13;;;;;;;8.72;90.11;102157.34;3371769;84;21581;-76
2022/11/12 20:05:37;;;;;;;57.40;41.10;;;;;;;8.72;90.11;102156.05;3455991;80;20970;-76
2022/11/12 20:10:46;;;;;;;47.95;37.48;;;;;;;8.72;90.22;102162.53;3456142;80;21018;-76
2022/11/12 20:15:55;;;;;;;48.48;36.48;;;;;;;8.74;90.31;102171.27;3464609;80;20974;-75
2022/11/12 20:21:08;;;;;;;51.95;38.10;;;;;;;8.71;90.31;102162.06;3492150;80;20970;-76
2022/11/12 20:26:18;;;;;;;53.15;38.75;;;;;;;8.70;90.35;102168.05;3420657;80;20928;-76
2022/11/12 20:31:27;;;;;;;48.58;36.68;;;;;;;8.69;90.39;102168.89;3480274;80;21034;-76
2022/11/12 20:36:37;;;;;;;50.92;37.58;;;;;;;8.69;90.46;102164.09;3469531;80;20971;-76
2022/11/12 20:41:47;;;;;;;50.45;39.13;;;;;;;8.69;90.50;102176.67;3471410;80;20990;-76
2022/11/12 20:46:57;;;;;;;52.40;38.23;;;;;;;8.70;90.70;102174.53;3449275;80;21057;-76
2022/11/12 20:52:06;;;;;;;57.90;38.53;;;;;;;8.71;90.77;102178.01;3444829;80;20994;-76
2022/11/12 20:57:16;;;;;;;53.23;38.80;;;;;;;8.71;90.72;102182.81;3495901;80;20998;-76
2022/11/12 21:02:25;;;;;;;55.98;42.20;;;;;;;8.71;90.71;102186.70;3440884;80;20978;-76
2022/11/12 21:07:35;;;;;;;52.43;39.00;;;;;;;8.71;90.82;102180.59;3445560;80;21019;-77
2022/11/12 21:12:44;;;;;;;61.75;44.18;;;;;;;8.71;90.98;102169.84;3420001;80;21026;-76
2022/11/12 21:17:54;;;;;;;50.60;38.92;;;;;;;8.72;91.02;102172.02;3478455;81;21041;-76
2022/11/12 21:23:05;;;;;;;59.98;43.08;;;;;;;8.69;90.97;102168.89;3494329;80;20923;-76
2022/11/12 21:28:23;;;;;;;58.13;41.88;;;;;;;8.68;91.01;102159.31;3471645;81;20927;-76
2022/11/12 21:34:02;;;;;;;57.58;40.83;;;;;;;8.69;91.14;102168.89;3494245;80;21309;-76
2022/11/12 21:39:52;;;;;;;;;;;;;;;;;;;;;
2022/11/12 21:45:15;;;;;;;56.55;40.30;;;;;;;8.67;91.15;102170.91;3493403;80;21122;-76
2022/11/12 21:50:25;;;;;;;62.58;44.93;;;;;;;8.67;91.27;102172.20;3497666;80;20970;-76
2022/11/12 21:55:37;;;;;;;61.08;43.65;;;;;;;8.67;91.34;102180.86;3482060;80;20978;-76
2022/11/12 22:00:48;;;;;;;52.88;37.10;;;;;;;8.68;91.51;102170.11;3465061;80;21552;-76
2022/11/12 22:06:02;;;;;;;58.33;42.23;;;;;;;8.68;91.46;102174.88;3499302;80;21489;-76
2022/11/12 22:11:14;;;;;;;59.83;43.42;;;;;;;8.68;91.52;102178.77;3451416;80;21014;-76
2022/11/12 22:16:29;;;;;;;63.17;40.30;;;;;;;8.68;91.60;102172.28;3479840;80;20979;-76
2022/11/12 22:21:38;;;;;;;55.65;41.02;;;;;;;8.71;91.52;102168.94;3451055;80;21476;-76
2022/11/12 22:26:48;;;;;;;55.30;40.43;;;;;;;8.69;91.60;102170.19;3491874;80;20966;-76
2022/11/12 22:32:00;;;;;;;59.83;42.17;;;;;;;8.70;91.67;102173.23;3497862;80;21042;-76
2022/11/12 22:37:10;;;;;;;56.15;39.95;;;;;;;8.71;91.83;102170.23;3498194;80;20955;-76
2022/11/12 22:42:22;;;;;;;56.95;38.92;;;;;;;8.71;91.83;102166.34;3442896;80;21002;-76
2022/11/12 22:47:42;;;;;;;57.75;41.92;;;;;;;8.70;91.78;102164.58;3491189;80;20983;-76
2022/11/12 22:52:49;;;;;;;57.20;41.37;;;;;;;8.70;91.78;102165.46;3451309;80;20994;-76
2022/11/12 22:58:01;;;;;;;59.08;41.00;;;;;;;8.70;92.00;102158.09;3442115;80;21540;-76
2022/11/12 23:03:10;;;;;;;68.47;42.23;;;;;;;8.72;92.00;102166.42;3459578;80;21529;-76
2022/11/12 23:08:25;;;;;;;54.90;40.63;;;;;;;8.73;92.08;102163.02;3445598;80;21026;-76
2022/11/12 23:13:34;;;;;;;58.48;41.83;;;;;;;8.73;92.05;102159.13;3427752;80;21676;-76
2022/11/12 23:18:48;;;;;;;54.15;37.40;;;;;;;8.73;92.16;102161.72;3470845;80;21014;-76
2022/11/12 23:24:01;;;;;;;55.60;39.73;;;;;;;8.73;92.14;102166.03;3461989;80;21153;-76
2022/11/12 23:29:24;;;;;;;;;;;;;;;;;;;;;
2022/11/12 23:34:28;;;;;;;54.03;37.10;;;;;;;8.75;92.34;102170.46;3472083;80;20963;-76
2022/11/12 23:39:43;;;;;;;49.38;34.88;;;;;;;8.76;92.38;102165.77;3476953;80;20972;-76
2022/11/12 23:44:56;;;;;;;51.40;35.85;;;;;;;8.77;92.35;102168.83;3423732;80;21225;-76
2022/11/12 23:50:11;;;;;;;50.55;35.20;;;;;;;8.78;92.37;102160.24;3449557;80;21297;-76
2022/11/12 23:55:23;;;;;;;49.73;35.05;;;;;;;8.77;92.41;102159.75;3401597;82;21015;-76
